sensor_id;sensor_type;location;lat;lon;timestamp;pressure;altitude;pressure_sealevel;temperature;humidity
29909;BME280;36247;51.952;6.146;2023-08-06T00:01:53;100357.38;;;14.92;100.00
29909;BME280;36247;51.952;6.146;2023-08-06T00:04:19;100361.75;;;14.98;100.00
29909;BME280;36247;51.952;6.146;2023-08-06T00:06:44;100354.56;;;15.02;100.00
29909;BME280;36247;51.952;6.146;2023-08-06T00:09:10;100366.22;;;14.97;100.00
29909;BME280;36247;51.952;6.146;2023-08-06T00:11:36;100362.66;;;14.95;100.00
29909;BME280;36247;51.952;6.146;2023-08-06T00:14:02;100355.47;;;15.02;100.00
29909;BME280;36247;51.952;6.146;2023-08-06T00:16:27;100358.22;;;14.97;100.00
29909;BME280;36247;51.952;6.146;2023-08-06T00:18:53;100357.31;;;14.95;100.00
29909;BME280;36247;51.952;6.146;2023-08-06T00:21:18;100355.59;;;14.93;100.00
29909;BME280;36247;51.952;6.146;2023-08-06T00:23:44;100353.66;;;15.04;100.00
29909;BME280;36247;51.952;6.146;2023-08-06T00:26:10;100347.63;;;14.91;100.00
29909;BME280;36247;51.952;6.146;2023-08-06T00:28:36;100343.09;;;14.96;100.00
29909;BME280;36247;51.952;6.146;2023-08-06T00:31:01;100347.50;;;15.01;100.00
29909;BME280;36247;51.952;6.146;2023-08-06T00:33:27;100345.84;;;14.90;100.00
29909;BME280;36247;51.952;6.146;2023-08-06T00:35:53;100347.56;;;14.94;100.00
29909;BME280;36247;51.952;6.146;2023-08-06T00:38:18;100345.69;;;15.03;100.00
29909;BME280;36247;51.952;6.146;2023-08-06T00:40:45;100343.09;;;14.96;100.00
29909;BME280;36247;51.952;6.146;2023-08-06T00:43:10;100351.13;;;14.93;100.00
29909;BME280;36247;51.952;6.146;2023-08-06T00:45:37;100344.00;;;14.95;100.00
29909;BME280;36247;51.952;6.146;2023-08-06T00:48:04;100343.94;;;14.98;100.00
29909;BME280;36247;51.952;6.146;2023-08-06T00:50:31;100336.84;;;15.01;100.00
29909;BME280;36247;51.952;6.146;2023-08-06T00:52:57;100351.16;;;14.92;100.00
29909;BME280;36247;51.952;6.146;2023-08-06T00:55:23;100346.69;;;14.92;100.00
29909;BME280;36247;51.952;6.146;2023-08-06T00:57:49;100351.22;;;14.87;100.00
29909;BME280;36247;51.952;6.146;2023-08-06T01:00:17;100351.06;;;14.99;100.00
29909;BME280;36247;51.952;6.146;2023-08-06T01:02:42;100352.03;;;14.92;100.00
29909;BME280;36247;51.952;6.146;2023-08-06T01:05:08;100342.22;;;14.96;100.00
29909;BME280;36247;51.952;6.146;2023-08-06T01:08:06;100347.38;;;15.10;100.00
29909;BME280;36247;51.952;6.146;2023-08-06T01:14:06;100342.13;;;15.04;100.00
29909;BME280;36247;51.952;6.146;2023-08-06T01:16:33;100345.78;;;14.95;100.00
29909;BME280;36247;51.952;6.146;2023-08-06T01:19:00;100342.19;;;14.99;100.00
29909;BME280;36247;51.952;6.146;2023-08-06T01:21:25;100336.94;;;14.93;100.00
29909;BME280;36247;51.952;6.146;2023-08-06T01:23:51;100343.19;;;14.90;100.00
29909;BME280;36247;51.952;6.146;2023-08-06T01:29:11;100340.50;;;14.90;100.00
29909;BME280;36247;51.952;6.146;2023-08-06T01:31:39;100340.56;;;14.86;100.00
29909;BME280;36247;51.952;6.146;2023-08-06T01:34:16;100340.53;;;14.87;100.00
29909;BME280;36247;51.952;6.146;2023-08-06T01:36:43;100335.19;;;14.89;100.00
29909;BME280;36247;51.952;6.146;2023-08-06T01:39:09;100327.22;;;14.86;100.00
29909;BME280;36247;51.952;6.146;2023-08-06T01:41:35;100331.63;;;14.88;100.00
29909;BME280;36247;51.952;6.146;2023-08-06T01:44:02;100333.47;;;14.83;100.00
29909;BME280;36247;51.952;6.146;2023-08-06T01:46:28;100321.84;;;14.89;100.00
29909;BME280;36247;51.952;6.146;2023-08-06T01:48:54;100329.00;;;14.84;100.00
29909;BME280;36247;51.952;6.146;2023-08-06T01:51:19;100323.63;;;14.88;100.00
29909;BME280;36247;51.952;6.146;2023-08-06T01:53:45;100319.16;;;14.90;100.00
29909;BME280;36247;51.952;6.146;2023-08-06T01:56:10;100316.47;;;14.93;100.00
29909;BME280;36247;51.952;6.146;2023-08-06T01:58:36;100326.06;;;15.07;100.00
29909;BME280;36247;51.952;6.146;2023-08-06T02:01:02;100321.53;;;15.12;100.00
29909;BME280;36247;51.952;6.146;2023-08-06T02:03:27;100319.06;;;14.98;100.00
29909;BME280;36247;51.952;6.146;2023-08-06T02:05:53;100317.25;;;15.00;100.00
29909;BME280;36247;51.952;6.146;2023-08-06T02:08:19;100317.28;;;14.98;100.00
29909;BME280;36247;51.952;6.146;2023-08-06T02:10:46;100314.50;;;15.08;100.00
29909;BME280;36247;51.952;6.146;2023-08-06T02:13:12;100318.13;;;15.02;100.00
29909;BME280;36247;51.952;6.146;2023-08-06T02:15:45;100318.84;;;15.13;100.00
29909;BME280;36247;51.952;6.146;2023-08-06T02:18:16;100320.75;;;15.07;100.00
29909;BME280;36247;51.952;6.146;2023-08-06T02:20:43;100313.59;;;15.09;100.00
29909;BME280;36247;51.952;6.146;2023-08-06T02:23:08;100309.22;;;15.02;100.00
29909;BME280;36247;51.952;6.146;2023-08-06T02:25:35;100308.38;;;14.99;100.00
29909;BME280;36247;51.952;6.146;2023-08-06T02:28:01;100308.47;;;14.93;100.00
29909;BME280;36247;51.952;6.146;2023-08-06T02:30:27;100303.84;;;15.05;100.00
29909;BME280;36247;51.952;6.146;2023-08-06T02:32:53;100307.56;;;14.94;100.00
29909;BME280;36247;51.952;6.146;2023-08-06T02:35:19;100301.28;;;14.98;100.00
29909;BME280;36247;51.952;6.146;2023-08-06T02:37:45;100304.75;;;15.05;100.00
29909;BME280;36247;51.952;6.146;2023-08-06T02:40:11;100303.16;;;14.92;100.00
29909;BME280;36247;51.952;6.146;2023-08-06T02:42:36;100302.19;;;14.97;100.00
29909;BME280;36247;51.952;6.146;2023-08-06T02:45:03;100297.75;;;14.96;100.00
29909;BME280;36247;51.952;6.146;2023-08-06T02:47:28;100290.63;;;14.95;100.00
29909;BME280;36247;51.952;6.146;2023-08-06T02:49:55;100290.63;;;14.95;100.00
29909;BME280;36247;51.952;6.146;2023-08-06T02:52:21;100294.28;;;14.91;100.00
29909;BME280;36247;51.952;6.146;2023-08-06T02:54:46;100294.97;;;15.04;100.00
29909;BME280;36247;51.952;6.146;2023-08-06T02:57:16;100296.72;;;15.07;100.00
29909;BME280;36247;51.952;6.146;2023-08-06T02:59:41;100281.69;;;14.99;100.00
29909;BME280;36247;51.952;6.146;2023-08-06T03:02:16;100287.97;;;14.95;100.00
29909;BME280;36247;51.952;6.146;2023-08-06T03:04:50;100289.69;;;15.01;100.00
29909;BME280;36247;51.952;6.146;2023-08-06T03:07:19;100278.94;;;15.06;100.00
29909;BME280;36247;51.952;6.146;2023-08-06T03:09:52;100281.63;;;15.06;100.00
29909;BME280;36247;51.952;6.146;2023-08-06T03:12:19;100284.22;;;15.10;100.00
29909;BME280;36247;51.952;6.146;2023-08-06T03:14:45;100280.56;;;15.18;100.00
29909;BME280;36247;51.952;6.146;2023-08-06T03:17:10;100277.22;;;15.02;100.00
29909;BME280;36247;51.952;6.146;2023-08-06T03:19:38;100278.00;;;15.10;100.00
29909;BME280;36247;51.952;6.146;2023-08-06T03:22:05;100273.72;;;14.98;100.00
29909;BME280;36247;51.952;6.146;2023-08-06T03:24:33;100277.88;;;15.19;100.00
29909;BME280;36247;51.952;6.146;2023-08-06T03:27:03;100269.13;;;15.11;100.00
29909;BME280;36247;51.952;6.146;2023-08-06T03:29:29;100266.63;;;14.95;100.00
29909;BME280;36247;51.952;6.146;2023-08-06T03:31:58;100270.16;;;15.01;100.00
29909;BME280;36247;51.952;6.146;2023-08-06T03:34:25;100276.41;;;14.96;100.00
29909;BME280;36247;51.952;6.146;2023-08-06T03:36:51;100268.22;;;15.09;100.00
29909;BME280;36247;51.952;6.146;2023-08-06T03:39:17;100267.44;;;15.02;100.00
29909;BME280;36247;51.952;6.146;2023-08-06T03:41:42;100266.44;;;15.12;100.00
29909;BME280;36247;51.952;6.146;2023-08-06T03:44:08;100268.41;;;14.96;100.00
29909;BME280;36247;51.952;6.146;2023-08-06T03:46:34;100263.81;;;15.08;100.00
29909;BME280;36247;51.952;6.146;2023-08-06T03:49:02;100266.41;;;15.14;100.00
29909;BME280;36247;51.952;6.146;2023-08-06T03:51:27;100269.19;;;15.05;100.00
29909;BME280;36247;51.952;6.146;2023-08-06T03:53:53;100266.47;;;15.09;100.00
29909;BME280;36247;51.952;6.146;2023-08-06T03:56:19;100271.88;;;15.03;100.00
29909;BME280;36247;51.952;6.146;2023-08-06T03:58:45;100273.63;;;15.06;100.00
29909;BME280;36247;51.952;6.146;2023-08-06T04:01:10;100262.00;;;15.10;100.00
29909;BME280;36247;51.952;6.146;2023-08-06T04:03:42;100274.50;;;15.05;100.00
29909;BME280;36247;51.952;6.146;2023-08-06T04:06:08;100272.78;;;15.02;100.00
29909;BME280;36247;51.952;6.146;2023-08-06T04:08:33;100271.00;;;15.03;100.00
29909;BME280;36247;51.952;6.146;2023-08-06T04:11:00;100270.91;;;15.09;100.00
29909;BME280;36247;51.952;6.146;2023-08-06T04:13:25;100278.78;;;15.16;100.00
29909;BME280;36247;51.952;6.146;2023-08-06T04:15:54;100276.31;;;15.03;100.00
29909;BME280;36247;51.952;6.146;2023-08-06T04:18:20;100276.38;;;14.99;100.00
29909;BME280;36247;51.952;6.146;2023-08-06T04:20:47;100276.28;;;15.06;100.00
29909;BME280;36247;51.952;6.146;2023-08-06T04:23:16;100276.16;;;15.15;100.00
29909;BME280;36247;51.952;6.146;2023-08-06T04:25:42;100272.53;;;15.19;100.00
29909;BME280;36247;51.952;6.146;2023-08-06T04:28:08;100271.78;;;15.11;100.00
29909;BME280;36247;51.952;6.146;2023-08-06T04:30:34;100277.16;;;15.08;100.00
29909;BME280;36247;51.952;6.146;2023-08-06T04:33:02;100267.19;;;15.21;100.00
29909;BME280;36247;51.952;6.146;2023-08-06T04:35:28;100270.03;;;15.08;100.00
29909;BME280;36247;51.952;6.146;2023-08-06T04:37:56;100276.25;;;15.09;100.00
29909;BME280;36247;51.952;6.146;2023-08-06T04:40:21;100266.50;;;15.08;100.00
29909;BME280;36247;51.952;6.146;2023-08-06T04:42:47;100270.00;;;15.10;100.00
29909;BME280;36247;51.952;6.146;2023-08-06T04:45:12;100277.16;;;15.09;100.00
29909;BME280;36247;51.952;6.146;2023-08-06T04:47:38;100273.53;;;15.12;100.00
29909;BME280;36247;51.952;6.146;2023-08-06T04:50:04;100287.63;;;15.23;100.00
29909;BME280;36247;51.952;6.146;2023-08-06T04:52:30;100282.38;;;15.17;100.00
29909;BME280;36247;51.952;6.146;2023-08-06T04:54:58;100290.41;;;15.14;100.00
29909;BME280;36247;51.952;6.146;2023-08-06T04:57:23;100284.06;;;15.24;100.00
29909;BME280;36247;51.952;6.146;2023-08-06T04:59:49;100285.84;;;15.22;100.00
29909;BME280;36247;51.952;6.146;2023-08-06T05:02:16;100289.28;;;15.30;100.00
29909;BME280;36247;51.952;6.146;2023-08-06T05:04:42;100288.53;;;15.21;100.00
29909;BME280;36247;51.952;6.146;2023-08-06T05:07:08;100288.41;;;15.28;100.00
29909;BME280;36247;51.952;6.146;2023-08-06T05:09:33;100293.78;;;15.25;100.00
29909;BME280;36247;51.952;6.146;2023-08-06T05:12:03;100294.75;;;15.20;100.00
29909;BME280;36247;51.952;6.146;2023-08-06T05:14:30;100291.22;;;15.19;100.00
29909;BME280;36247;51.952;6.146;2023-08-06T05:16:55;100295.75;;;15.14;100.00
29909;BME280;36247;51.952;6.146;2023-08-06T05:19:20;100297.44;;;15.18;100.00
29909;BME280;36247;51.952;6.146;2023-08-06T05:21:46;100295.66;;;15.20;100.00
29909;BME280;36247;51.952;6.146;2023-08-06T05:24:12;100293.75;;;15.28;100.00
29909;BME280;36247;51.952;6.146;2023-08-06T05:26:38;100305.31;;;15.29;100.00
29909;BME280;36247;51.952;6.146;2023-08-06T05:29:03;100309.78;;;15.27;100.00
29909;BME280;36247;51.952;6.146;2023-08-06T05:31:30;100309.78;;;15.27;100.00
29909;BME280;36247;51.952;6.146;2023-08-06T05:33:55;100315.09;;;15.28;100.00
29909;BME280;36247;51.952;6.146;2023-08-06T05:36:21;100317.72;;;15.31;100.00
29909;BME280;36247;51.952;6.146;2023-08-06T05:38:47;100318.69;;;15.27;100.00
29909;BME280;36247;51.952;6.146;2023-08-06T05:41:13;100322.22;;;15.28;100.00
29909;BME280;36247;51.952;6.146;2023-08-06T05:43:38;100313.03;;;15.49;100.00
29909;BME280;36247;51.952;6.146;2023-08-06T05:46:05;100323.72;;;15.49;100.00
29909;BME280;36247;51.952;6.146;2023-08-06T05:48:32;100321.81;;;15.57;100.00
29909;BME280;36247;51.952;6.146;2023-08-06T05:50:57;100324.47;;;15.59;100.00
29909;BME280;36247;51.952;6.146;2023-08-06T05:53:24;100328.19;;;15.48;100.00
29909;BME280;36247;51.952;6.146;2023-08-06T05:55:50;100325.47;;;15.51;100.00
29909;BME280;36247;51.952;6.146;2023-08-06T05:58:16;100320.78;;;15.67;100.00
29909;BME280;36247;51.952;6.146;2023-08-06T06:00:42;100324.16;;;15.77;100.00
29909;BME280;36247;51.952;6.146;2023-08-06T06:03:08;100327.75;;;15.75;100.00
29909;BME280;36247;51.952;6.146;2023-08-06T06:05:34;100333.91;;;15.83;100.00
29909;BME280;36247;51.952;6.146;2023-08-06T06:08:00;100335.75;;;15.81;100.00
29909;BME280;36247;51.952;6.146;2023-08-06T06:10:25;100332.88;;;15.92;100.00
29909;BME280;36247;51.952;6.146;2023-08-06T06:12:51;100335.47;;;15.96;100.00
29909;BME280;36247;51.952;6.146;2023-08-06T06:15:16;100347.91;;;15.99;100.00
29909;BME280;36247;51.952;6.146;2023-08-06T06:17:43;100346.44;;;15.81;100.00
29909;BME280;36247;51.952;6.146;2023-08-06T06:20:08;100346.22;;;15.93;100.00
29909;BME280;36247;51.952;6.146;2023-08-06T06:22:34;100350.44;;;16.08;100.00
29909;BME280;36247;51.952;6.146;2023-08-06T06:25:00;100349.47;;;16.12;100.00
29909;BME280;36247;51.952;6.146;2023-08-06T06:27:26;100350.34;;;16.13;100.00
29909;BME280;36247;51.952;6.146;2023-08-06T06:29:51;100353.84;;;16.16;100.00
29909;BME280;36247;51.952;6.146;2023-08-06T06:32:17;100354.78;;;16.15;100.00
29909;BME280;36247;51.952;6.146;2023-08-06T06:34:43;100365.31;;;16.23;100.00
29909;BME280;36247;51.952;6.146;2023-08-06T06:37:10;100361.72;;;16.24;100.00
29909;BME280;36247;51.952;6.146;2023-08-06T06:39:35;100356.25;;;16.33;100.00
29909;BME280;36247;51.952;6.146;2023-08-06T06:42:02;100358.47;;;16.56;100.00
29909;BME280;36247;51.952;6.146;2023-08-06T06:44:35;100360.22;;;16.59;100.00
29909;BME280;36247;51.952;6.146;2023-08-06T06:47:02;100361.03;;;16.63;100.00
29909;BME280;36247;51.952;6.146;2023-08-06T06:49:28;100358.47;;;16.56;100.00
29909;BME280;36247;51.952;6.146;2023-08-06T06:51:53;100359.03;;;16.75;100.00
29909;BME280;36247;51.952;6.146;2023-08-06T06:54:19;100355.38;;;16.80;100.00
29909;BME280;36247;51.952;6.146;2023-08-06T06:56:45;100367.13;;;16.71;100.00
29909;BME280;36247;51.952;6.146;2023-08-06T06:59:11;100363.97;;;16.49;100.00
29909;BME280;36247;51.952;6.146;2023-08-06T07:01:36;100366.75;;;16.43;100.00
29909;BME280;36247;51.952;6.146;2023-08-06T07:04:02;100374.22;;;16.73;100.00
29909;BME280;36247;51.952;6.146;2023-08-06T07:06:30;100371.34;;;16.84;100.00
29909;BME280;36247;51.952;6.146;2023-08-06T07:08:56;100380.25;;;16.85;100.00
29909;BME280;36247;51.952;6.146;2023-08-06T07:11:21;100368.88;;;16.73;100.00
29909;BME280;36247;51.952;6.146;2023-08-06T07:13:49;100378.66;;;16.74;100.00
29909;BME280;36247;51.952;6.146;2023-08-06T07:16:17;100382.28;;;16.70;100.00
29909;BME280;36247;51.952;6.146;2023-08-06T07:18:43;100380.66;;;16.63;100.00
29909;BME280;36247;51.952;6.146;2023-08-06T07:21:09;100380.78;;;16.57;100.00
29909;BME280;36247;51.952;6.146;2023-08-06T07:23:34;100385.88;;;16.69;100.00
29909;BME280;36247;51.952;6.146;2023-08-06T07:26:02;100390.41;;;16.66;100.00
29909;BME280;36247;51.952;6.146;2023-08-06T07:28:28;100384.06;;;16.71;100.00
29909;BME280;36247;51.952;6.146;2023-08-06T07:30:54;100390.78;;;16.94;100.00
29909;BME280;36247;51.952;6.146;2023-08-06T07:33:20;100384.53;;;16.95;100.00
29909;BME280;36247;51.952;6.146;2023-08-06T07:35:46;100390.22;;;16.77;100.00
29909;BME280;36247;51.952;6.146;2023-08-06T07:38:13;100393.41;;;16.97;100.00
29909;BME280;36247;51.952;6.146;2023-08-06T07:40:40;100390.41;;;17.14;100.00
29909;BME280;36247;51.952;6.146;2023-08-06T07:43:06;100394.50;;;16.88;100.00
29909;BME280;36247;51.952;6.146;2023-08-06T07:45:35;100394.75;;;17.20;100.00
29909;BME280;36247;51.952;6.146;2023-08-06T07:48:03;100395.47;;;17.28;100.00
29909;BME280;36247;51.952;6.146;2023-08-06T07:50:31;100398.19;;;17.26;100.00
29909;BME280;36247;51.952;6.146;2023-08-06T07:53:00;100394.44;;;17.35;100.00
29909;BME280;36247;51.952;6.146;2023-08-06T07:55:26;100393.56;;;17.35;100.00
29909;BME280;36247;51.952;6.146;2023-08-06T07:57:54;100394.13;;;17.49;100.00
29909;BME280;36247;51.952;6.146;2023-08-06T08:00:19;100387.19;;;17.39;100.00
29909;BME280;36247;51.952;6.146;2023-08-06T08:02:45;100393.34;;;17.44;100.00
29909;BME280;36247;51.952;6.146;2023-08-06T08:05:11;100396.44;;;17.24;100.00
29909;BME280;36247;51.952;6.146;2023-08-06T08:07:40;100390.63;;;17.03;100.00
29909;BME280;36247;51.952;6.146;2023-08-06T08:10:06;100397.38;;;16.74;100.00
29909;BME280;36247;51.952;6.146;2023-08-06T08:12:32;100403.03;;;17.06;100.00
29909;BME280;36247;51.952;6.146;2023-08-06T08:14:58;100397.50;;;16.68;100.00
29909;BME280;36247;51.952;6.146;2023-08-06T08:17:24;100396.00;;;16.52;100.00
29909;BME280;36247;51.952;6.146;2023-08-06T08:19:50;100396.72;;;16.63;100.00
29909;BME280;36247;51.952;6.146;2023-08-06T08:22:17;100402.22;;;16.52;100.00
29909;BME280;36247;51.952;6.146;2023-08-06T08:24:43;100397.34;;;16.76;100.00
29909;BME280;36247;51.952;6.146;2023-08-06T08:27:08;100407.22;;;16.72;100.00
29909;BME280;36247;51.952;6.146;2023-08-06T08:29:34;100403.59;;;16.77;100.00
29909;BME280;36247;51.952;6.146;2023-08-06T08:32:00;100402.50;;;16.88;100.00
29909;BME280;36247;51.952;6.146;2023-08-06T08:34:26;100410.09;;;16.62;100.00
29909;BME280;36247;51.952;6.146;2023-08-06T08:36:52;100409.94;;;16.71;100.00
29909;BME280;36247;51.952;6.146;2023-08-06T08:39:18;100399.50;;;17.05;100.00
29909;BME280;36247;51.952;6.146;2023-08-06T08:41:46;100393.88;;;17.18;100.00
29909;BME280;36247;51.952;6.146;2023-08-06T08:44:18;100407.44;;;17.10;100.00
29909;BME280;36247;51.952;6.146;2023-08-06T08:46:47;100405.06;;;16.95;100.00
29909;BME280;36247;51.952;6.146;2023-08-06T08:49:13;100406.72;;;17.00;100.00
29909;BME280;36247;51.952;6.146;2023-08-06T08:51:46;100407.16;;;17.22;100.00
29909;BME280;36247;51.952;6.146;2023-08-06T08:54:17;100401.66;;;17.30;100.00
29909;BME280;36247;51.952;6.146;2023-08-06T08:56:45;100402.19;;;17.48;100.00
29909;BME280;36247;51.952;6.146;2023-08-06T08:59:11;100399.81;;;17.34;100.00
29909;BME280;36247;51.952;6.146;2023-08-06T09:01:48;100405.28;;;17.29;100.00
29909;BME280;36247;51.952;6.146;2023-08-06T09:04:18;100411.31;;;17.37;100.00
29909;BME280;36247;51.952;6.146;2023-08-06T09:06:47;100413.78;;;17.04;100.00
29909;BME280;36247;51.952;6.146;2023-08-06T09:09:34;100415.16;;;17.24;100.00
29909;BME280;36247;51.952;6.146;2023-08-06T09:12:05;100415.38;;;17.57;100.00
29909;BME280;36247;51.952;6.146;2023-08-06T09:14:33;100416.38;;;17.53;100.00
29909;BME280;36247;51.952;6.146;2023-08-06T09:16:58;100416.31;;;17.56;100.00
29909;BME280;36247;51.952;6.146;2023-08-06T09:19:26;100422.69;;;17.91;100.00
29909;BME280;36247;51.952;6.146;2023-08-06T09:21:53;100411.28;;;17.81;100.00
29909;BME280;36247;51.952;6.146;2023-08-06T09:24:21;100421.13;;;17.79;100.00
29909;BME280;36247;51.952;6.146;2023-08-06T09:26:47;100422.63;;;17.94;100.00
29909;BME280;36247;51.952;6.146;2023-08-06T09:29:13;100416.75;;;18.15;100.00
29909;BME280;36247;51.952;6.146;2023-08-06T09:31:50;100420.22;;;18.19;100.00
29909;BME280;36247;51.952;6.146;2023-08-06T09:34:21;100420.03;;;18.27;100.00
29909;BME280;36247;51.952;6.146;2023-08-06T09:36:48;100423.50;;;18.32;100.00
29909;BME280;36247;51.952;6.146;2023-08-06T09:39:18;100429.75;;;18.67;100.00
29909;BME280;36247;51.952;6.146;2023-08-06T09:41:46;100432.75;;;18.91;100.00
29909;BME280;36247;51.952;6.146;2023-08-06T09:44:18;100424.81;;;19.19;100.00
29909;BME280;36247;51.952;6.146;2023-08-06T09:46:51;100413.38;;;19.42;100.00
29909;BME280;36247;51.952;6.146;2023-08-06T09:49:19;100418.13;;;19.64;100.00
29909;BME280;36247;51.952;6.146;2023-08-06T09:51:48;100417.69;;;20.34;100.00
29909;BME280;36247;51.952;6.146;2023-08-06T09:54:17;100422.03;;;19.83;100.00
29909;BME280;36247;51.952;6.146;2023-08-06T09:56:46;100421.47;;;19.41;100.00
29909;BME280;36247;51.952;6.146;2023-08-06T09:59:14;100421.19;;;19.51;100.00
29909;BME280;36247;51.952;6.146;2023-08-06T10:01:43;100431.34;;;19.40;100.00
29909;BME280;36247;51.952;6.146;2023-08-06T10:04:11;100437.31;;;18.53;100.00
29909;BME280;36247;51.952;6.146;2023-08-06T10:06:46;100439.69;;;18.63;100.00
29909;BME280;36247;51.952;6.146;2023-08-06T10:09:17;100440.44;;;18.34;100.00
29909;BME280;36247;51.952;6.146;2023-08-06T10:11:50;100441.88;;;18.11;100.00
29909;BME280;36247;51.952;6.146;2023-08-06T10:14:33;100432.47;;;17.93;100.00
29909;BME280;36247;51.952;6.146;2023-08-06T10:17:02;100439.63;;;17.51;100.00
29909;BME280;36247;51.952;6.146;2023-08-06T10:19:30;100434.81;;;17.67;100.00
29909;BME280;36247;51.952;6.146;2023-08-06T10:22:14;100435.13;;;17.53;100.00
29909;BME280;36247;51.952;6.146;2023-08-06T10:24:49;100436.00;;;17.53;100.00
29909;BME280;36247;51.952;6.146;2023-08-06T10:27:22;100443.75;;;17.23;100.00
29909;BME280;36247;51.952;6.146;2023-08-06T10:29:48;100446.38;;;17.25;100.00
29909;BME280;36247;51.952;6.146;2023-08-06T10:32:17;100453.78;;;17.12;100.00
29909;BME280;36247;51.952;6.146;2023-08-06T10:34:56;100455.47;;;17.16;100.00
29909;BME280;36247;51.952;6.146;2023-08-06T10:37:23;100454.06;;;16.97;100.00
29909;BME280;36247;51.952;6.146;2023-08-06T10:39:52;100465.97;;;16.79;100.00
29909;BME280;36247;51.952;6.146;2023-08-06T10:42:22;100460.72;;;16.72;100.00
29909;BME280;36247;51.952;6.146;2023-08-06T10:45:25;100469.03;;;16.54;100.00
29909;BME280;36247;51.952;6.146;2023-08-06T10:47:54;100463.28;;;16.27;100.00
29909;BME280;36247;51.952;6.146;2023-08-06T10:50:24;100468.47;;;16.36;100.00
29909;BME280;36247;51.952;6.146;2023-08-06T10:52:50;100466.69;;;16.35;100.00
29909;BME280;36247;51.952;6.146;2023-08-06T10:55:24;100467.38;;;16.48;100.00
29909;BME280;36247;51.952;6.146;2023-08-06T10:57:51;100464.94;;;16.33;100.00
29909;BME280;36247;51.952;6.146;2023-08-06T11:00:16;100472.94;;;16.34;100.00
29909;BME280;36247;51.952;6.146;2023-08-06T11:02:43;100474.69;;;16.37;100.00
29909;BME280;36247;51.952;6.146;2023-08-06T11:05:13;100480.38;;;16.15;100.00
29909;BME280;36247;51.952;6.146;2023-08-06T11:07:43;100483.00;;;16.18;100.00
29909;BME280;36247;51.952;6.146;2023-08-06T11:10:12;100493.00;;;16.04;100.00
29909;BME280;36247;51.952;6.146;2023-08-06T11:12:40;100500.50;;;15.74;100.00
29909;BME280;36247;51.952;6.146;2023-08-06T11:15:06;100502.47;;;15.57;100.00
29909;BME280;36247;51.952;6.146;2023-08-06T11:17:34;100498.38;;;15.26;100.00
29909;BME280;36247;51.952;6.146;2023-08-06T11:20:03;100503.94;;;15.03;100.00
29909;BME280;36247;51.952;6.146;2023-08-06T11:22:30;100509.66;;;14.58;100.00
29909;BME280;36247;51.952;6.146;2023-08-06T11:24:56;100509.69;;;14.52;100.00
29909;BME280;36247;51.952;6.146;2023-08-06T11:27:22;100513.31;;;14.45;100.00
29909;BME280;36247;51.952;6.146;2023-08-06T11:29:48;100519.63;;;14.32;100.00
29909;BME280;36247;51.952;6.146;2023-08-06T11:32:16;100519.63;;;14.35;100.00
29909;BME280;36247;51.952;6.146;2023-08-06T11:34:43;100533.78;;;14.38;100.00
29909;BME280;36247;51.952;6.146;2023-08-06T11:37:08;100540.09;;;14.23;100.00
29909;BME280;36247;51.952;6.146;2023-08-06T11:39:37;100540.03;;;14.33;100.00
29909;BME280;36247;51.952;6.146;2023-08-06T11:42:04;100539.97;;;14.43;100.00
29909;BME280;36247;51.952;6.146;2023-08-06T11:44:36;100549.88;;;14.24;100.00
29909;BME280;36247;51.952;6.146;2023-08-06T11:47:04;100549.88;;;14.24;100.00
29909;BME280;36247;51.952;6.146;2023-08-06T11:49:47;100555.16;;;14.31;100.00
29909;BME280;36247;51.952;6.146;2023-08-06T11:52:17;100557.69;;;14.52;100.00
29909;BME280;36247;51.952;6.146;2023-08-06T11:54:46;100555.13;;;14.37;100.00
29909;BME280;36247;51.952;6.146;2023-08-06T11:57:13;100560.41;;;14.41;100.00
29909;BME280;36247;51.952;6.146;2023-08-06T11:59:41;100563.19;;;14.24;100.00
29909;BME280;36247;51.952;6.146;2023-08-06T12:02:09;100563.22;;;14.20;100.00
29909;BME280;36247;51.952;6.146;2023-08-06T12:05:01;100578.25;;;14.32;100.00
29909;BME280;36247;51.952;6.146;2023-08-06T12:07:28;100570.28;;;14.25;100.00
29909;BME280;36247;51.952;6.146;2023-08-06T12:09:57;100557.84;;;14.31;100.00
29909;BME280;36247;51.952;6.146;2023-08-06T12:12:24;100558.66;;;14.37;100.00
29909;BME280;36247;51.952;6.146;2023-08-06T12:14:49;100559.53;;;14.42;100.00
29909;BME280;36247;51.952;6.146;2023-08-06T12:17:16;100572.91;;;14.38;100.00
29909;BME280;36247;51.952;6.146;2023-08-06T12:19:44;100566.59;;;14.45;100.00
29909;BME280;36247;51.952;6.146;2023-08-06T12:22:10;100571.94;;;14.43;100.00
29909;BME280;36247;51.952;6.146;2023-08-06T12:24:36;100572.81;;;14.50;100.00
29909;BME280;36247;51.952;6.146;2023-08-06T12:27:01;100568.47;;;14.34;100.00
29909;BME280;36247;51.952;6.146;2023-08-06T12:29:28;100581.69;;;14.49;100.00
29909;BME280;36247;51.952;6.146;2023-08-06T12:31:53;100573.81;;;14.34;100.00
29909;BME280;36247;51.952;6.146;2023-08-06T12:34:19;100581.72;;;14.43;100.00
29909;BME280;36247;51.952;6.146;2023-08-06T12:36:45;100579.16;;;14.27;100.00
29909;BME280;36247;51.952;6.146;2023-08-06T12:39:11;100581.81;;;14.29;100.00
29909;BME280;36247;51.952;6.146;2023-08-06T12:41:36;100589.88;;;14.15;100.00
29909;BME280;36247;51.952;6.146;2023-08-06T12:44:02;100593.44;;;14.14;100.00
29909;BME280;36247;51.952;6.146;2023-08-06T12:46:27;100589.00;;;14.13;100.00
29909;BME280;36247;51.952;6.146;2023-08-06T12:48:53;100592.47;;;14.32;100.00